Time;durP1;ratioP1;P1;durP2;ratioP2;P2;SDS_P1;SDS_P2;PMS_P1;PMS_P2;Temp;Humidity;BMP_temperature;BMP_pressure;BME280_temperature;BME280_humidity;BME280_pressure;Samples;Min_cycle;Max_cycle;Signal;HPM_P1;HPM_P2
2023/02/02 00:00:32;;;;;;;6.85;3.13;;;;;;;9.50;100.00;101830.69;2093695;28;20036;-76
2023/02/02 00:01:56;;;;;;;5.60;2.45;;;;;;;9.48;100.00;101835.00;2096965;28;20060;-77
2023/02/02 00:03:17;;;;;;;12.45;6.07;;;;;;;9.48;100.00;101837.66;2104089;28;20396;-77
2023/02/02 00:04:41;;;;;;;5.93;3.15;;;;;;;9.48;100.00;101828.84;2113031;27;20043;-76
2023/02/02 00:06:03;;;;;;;8.93;4.47;;;;;;;9.47;100.00;101838.47;2104390;28;20194;-77
2023/02/02 00:07:25;;;;;;;4.32;2.13;;;;;;;9.47;100.00;101829.66;2102804;28;20101;-76
2023/02/02 00:08:48;;;;;;;3.47;1.75;;;;;;;9.44;100.00;101830.47;2102810;28;20043;-75
2023/02/02 00:10:10;;;;;;;1.10;1.00;;;;;;;9.42;100.00;101833.88;2108741;28;20044;-76
2023/02/02 00:11:35;;;;;;;7.32;4.88;;;;;;;9.37;100.00;101825.81;2105455;28;20077;-76
2023/02/02 00:12:56;;;;;;;10.35;6.97;;;;;;;9.30;100.00;101833.44;2095645;28;20040;-77
2023/02/02 00:14:19;;;;;;;8.02;3.22;;;;;;;9.24;100.00;101820.03;2098607;28;20075;-76
2023/02/02 00:15:41;;;;;;;4.75;2.95;;;;;;;9.19;100.00;101825.09;2104132;28;20051;-76
2023/02/02 00:17:04;;;;;;;4.65;2.75;;;;;;;9.14;100.00;101814.41;2102957;28;20059;-75
2023/02/02 00:18:25;;;;;;;3.40;2.13;;;;;;;9.14;100.00;101824.94;2092821;28;20049;-77
2023/02/02 00:19:49;;;;;;;3.40;1.65;;;;;;;9.11;100.00;101819.56;2105081;28;20125;-76
2023/02/02 00:21:10;;;;;;;2.78;1.70;;;;;;;9.10;100.00;101809.84;2103006;28;20407;-76
2023/02/02 00:22:32;;;;;;;3.20;1.60;;;;;;;9.10;100.00;101808.97;2106000;28;20515;-76
2023/02/02 00:23:54;;;;;;;5.15;2.70;;;;;;;9.11;100.00;101816.03;2110999;28;20043;-76
2023/02/02 00:25:16;;;;;;;6.63;3.03;;;;;;;9.11;100.00;101816.03;2094799;28;20048;-76
2023/02/02 00:26:39;;;;;;;4.85;2.10;;;;;;;9.11;100.00;101818.66;2099659;28;20071;-76
2023/02/02 00:28:04;;;;;;;3.85;1.38;;;;;;;9.09;100.00;101815.06;2102779;28;20055;-77
2023/02/02 00:29:30;;;;;;;5.35;2.65;;;;;;;9.06;100.00;101813.19;2088521;28;20049;-76
2023/02/02 00:30:52;;;;;;;5.15;2.75;;;;;;;9.05;100.00;101814.06;2100777;28;20048;-77
2023/02/02 00:32:14;;;;;;;5.82;2.80;;;;;;;9.06;100.00;101815.81;2103212;28;20051;-76
2023/02/02 00:33:35;;;;;;;5.32;2.60;;;;;;;9.09;100.00;101812.44;2102275;28;20085;-76
2023/02/02 00:34:59;;;;;;;4.22;1.80;;;;;;;9.11;100.00;101816.03;2103229;28;20133;-76
2023/02/02 00:36:21;;;;;;;3.03;1.80;;;;;;;9.13;100.00;101807.31;2102717;28;20105;-76
2023/02/02 00:37:43;;;;;;;4.18;1.23;;;;;;;9.15;100.00;101808.28;2101718;28;20047;-76
2023/02/02 00:39:06;;;;;;;3.00;1.63;;;;;;;9.18;100.00;101802.25;2102274;28;20039;-76
2023/02/02 00:40:28;;;;;;;2.28;1.40;;;;;;;9.18;100.00;101803.16;2101766;28;20048;-76
2023/02/02 00:41:49;;;;;;;3.15;1.48;;;;;;;9.19;100.00;101807.56;2096728;28;20040;-76
2023/02/02 00:43:12;;;;;;;3.85;1.30;;;;;;;9.21;100.00;101804.97;2099702;28;20062;-76
2023/02/02 00:46:16;;;;;;;2.17;1.30;;;;;;;9.21;100.00;101797.09;2104517;28;20117;-76
2023/02/02 00:47:38;;;;;;;3.67;1.20;;;;;;;9.21;100.00;101791.81;2105961;28;20556;-76
2023/02/02 00:48:59;;;;;;;2.47;1.17;;;;;;;9.21;100.00;101786.53;2092572;28;20114;-76
2023/02/02 00:50:23;;;;;;;3.17;1.38;;;;;;;9.22;100.00;101796.25;2098534;28;20044;-76
2023/02/02 00:51:44;;;;;;;4.15;1.35;;;;;;;9.18;100.00;101791.72;2085958;28;20485;-76
2023/02/02 00:53:07;;;;;;;2.25;1.42;;;;;;;9.16;100.00;101788.13;2100038;28;20074;-76
2023/02/02 00:54:28;;;;;;;3.70;1.50;;;;;;;9.12;100.00;101791.50;2089197;28;20465;-76
2023/02/02 00:55:51;;;;;;;3.28;1.55;;;;;;;9.10;100.00;101790.53;2099611;28;20565;-76
2023/02/02 00:57:14;;;;;;;2.92;1.38;;;;;;;9.09;100.00;101787.00;2092158;28;20522;-76
2023/02/02 00:58:35;;;;;;;4.63;2.45;;;;;;;9.09;100.00;101784.34;2098653;28;20071;-76
2023/02/02 00:59:57;;;;;;;3.33;2.30;;;;;;;9.09;100.00;101789.63;2106279;28;20047;-76
2023/02/02 01:01:20;;;;;;;5.72;2.13;;;;;;;9.08;100.00;101784.28;2101635;28;20048;-76
2023/02/02 01:02:43;;;;;;;2.75;1.45;;;;;;;9.06;100.00;101786.84;2101988;28;20131;-77
2023/02/02 01:04:05;;;;;;;3.45;2.20;;;;;;;9.06;100.00;101785.97;2095950;28;20042;-76
2023/02/02 01:05:28;;;;;;;4.75;3.17;;;;;;;9.05;100.00;101786.81;2085232;28;20071;-76
2023/02/02 01:06:50;;;;;;;4.78;2.05;;;;;;;9.04;100.00;101783.28;2085154;28;20179;-76
2023/02/02 01:08:12;;;;;;;3.67;2.15;;;;;;;9.05;100.00;101784.19;2092098;28;20118;-76
2023/02/02 01:09:33;;;;;;;2.38;1.63;;;;;;;9.06;100.00;101785.97;2107347;28;20047;-76
2023/02/02 01:10:59;;;;;;;6.82;4.60;;;;;;;9.09;100.00;101780.81;2108972;28;20458;-76
2023/02/02 01:12:21;;;;;;;3.50;2.15;;;;;;;9.10;100.00;101793.16;2110283;28;20446;-76
2023/02/02 01:13:43;;;;;;;4.18;1.70;;;;;;;9.12;100.00;101783.59;2101536;28;20043;-76
2023/02/02 01:15:06;;;;;;;3.95;1.52;;;;;;;9.15;100.00;101786.31;2109868;28;20035;-75
2023/02/02 01:16:28;;;;;;;6.10;1.85;;;;;;;9.18;100.00;101776.81;2103420;28;20109;-76
2023/02/02 01:17:50;;;;;;;3.60;1.98;;;;;;;9.21;100.00;101781.28;2100677;28;20049;-77
2023/02/02 01:19:12;;;;;;;3.75;1.55;;;;;;;9.23;100.00;101787.50;2109849;28;20035;-75
2023/02/02 01:20:36;;;;;;;;;;;;;;;9.16;100.00;101786.38;2105049;28;20048;-76
2023/02/02 01:21:58;;;;;;;2.75;1.83;;;;;;;9.18;100.00;101791.72;2101875;28;19942;-76
2023/02/02 01:23:20;;;;;;;3.20;2.05;;;;;;;9.17;100.00;101792.56;2099896;28;20064;-76
2023/02/02 01:24:42;;;;;;;3.10;2.10;;;;;;;9.17;100.00;101797.81;2092993;28;20052;-76
2023/02/02 01:26:08;;;;;;;3.25;1.80;;;;;;;9.17;100.00;101796.09;2098106;28;20113;-76
2023/02/02 01:27:30;;;;;;;9.48;4.85;;;;;;;9.17;100.00;101796.09;2092806;28;20048;-76
2023/02/02 01:28:53;;;;;;;4.70;1.63;;;;;;;9.17;100.00;101796.09;2090277;28;20521;-76
2023/02/02 01:30:15;;;;;;;4.03;1.63;;;;;;;9.18;100.00;101802.25;2088998;28;20056;-76
2023/02/02 01:31:38;;;;;;;10.10;7.40;;;;;;;9.15;100.00;101796.84;2098600;28;20044;-76
2023/02/02 01:33:00;;;;;;;5.85;3.90;;;;;;;9.13;100.00;101795.88;2100687;28;20050;-76
2023/02/02 01:34:22;;;;;;;4.57;3.05;;;;;;;9.12;100.00;101797.63;2100257;28;20040;-76
2023/02/02 01:35:50;;;;;;;5.65;1.70;;;;;;;9.11;100.00;101795.84;2101554;28;20048;-76
2023/02/02 01:37:12;;;;;;;2.85;1.20;;;;;;;9.10;100.00;101788.78;2087775;28;20106;-76
2023/02/02 01:38:34;;;;;;;2.97;1.23;;;;;;;9.11;100.00;101787.97;2094466;28;20044;-76
2023/02/02 01:39:56;;;;;;;1.58;1.15;;;;;;;9.13;100.00;101793.25;2100234;28;20528;-76
2023/02/02 01:41:19;;;;;;;5.25;2.42;;;;;;;9.14;100.00;101781.88;2095983;28;20063;-76
2023/02/02 01:42:42;;;;;;;10.20;4.30;;;;;;;9.13;100.00;101780.97;2101971;28;20051;-76
2023/02/02 01:44:05;;;;;;;5.22;2.20;;;;;;;9.14;100.00;101788.06;2108214;28;20104;-76
2023/02/02 01:45:29;;;;;;;5.65;2.47;;;;;;;9.14;100.00;101792.41;2097841;28;20048;-76
2023/02/02 01:46:50;;;;;;;3.53;1.92;;;;;;;9.15;100.00;101781.94;2099287;28;20097;-76
2023/02/02 01:48:12;;;;;;;3.80;1.92;;;;;;;9.15;100.00;101784.59;2101089;28;20047;-76
2023/02/02 01:49:35;;;;;;;6.22;3.38;;;;;;;9.18;100.00;101775.91;2101687;28;20048;-76
2023/02/02 01:51:04;;;;;;;6.18;2.30;;;;;;;9.19;100.00;101781.22;2100851;28;20040;-76
2023/02/02 01:52:30;;;;;;;3.90;1.90;;;;;;;9.21;100.00;101786.53;2094775;28;20052;-76
2023/02/02 01:53:56;;;;;;;5.75;1.52;;;;;;;9.23;100.00;101783.97;2094092;28;20126;-76
2023/02/02 01:55:22;;;;;;;3.90;2.72;;;;;;;9.24;100.00;101783.16;2097208;28;20055;-76
2023/02/02 01:56:50;;;;;;;4.60;2.72;;;;;;;9.27;100.00;101780.59;2101893;28;20051;-76
2023/02/02 01:58:18;;;;;;;3.42;1.63;;;;;;;9.28;100.00;101778.03;2102021;28;20048;-76
2023/02/02 01:59:40;;;;;;;7.00;3.92;;;;;;;9.30;100.00;101780.72;2100703;28;20036;-76
2023/02/02 02:01:03;;;;;;;2.10;1.40;;;;;;;9.32;100.00;101776.44;2099175;28;20083;-76
2023/02/02 02:02:26;;;;;;;2.80;1.63;;;;;;;9.33;100.00;101776.47;2093522;28;20492;-76
2023/02/02 02:03:49;;;;;;;2.28;1.23;;;;;;;9.36;100.00;101775.69;2090894;28;20131;-76
2023/02/02 02:05:12;;;;;;;4.55;2.00;;;;;;;9.37;100.00;101767.84;2090911;28;20048;-76
2023/02/02 02:06:37;;;;;;;1.70;0.88;;;;;;;9.40;100.00;101780.22;2092819;28;20055;-76
2023/02/02 02:08:06;;;;;;;2.58;1.20;;;;;;;9.38;100.00;101767.00;2090620;28;20676;-76
2023/02/02 02:09:28;;;;;;;3.45;1.30;;;;;;;9.36;100.00;101775.69;2101404;28;20052;-76
2023/02/02 02:10:50;;;;;;;1.48;1.00;;;;;;;9.34;100.00;101778.25;2104381;28;20073;-76
2023/02/02 02:12:14;;;;;;;2.00;1.15;;;;;;;9.32;100.00;101779.94;2110378;28;20047;-76
2023/02/02 02:17:22;;;;;;;3.45;1.70;;;;;;;9.19;100.00;101781.22;2063153;28;20061;-75
2023/02/02 02:18:55;;;;;;;4.10;1.40;;;;;;;9.14;100.00;101785.41;2107994;28;20046;-76
2023/02/02 02:27:01;;;;;;;1.90;1.00;;;;;;;8.76;100.00;101775.16;2089460;28;20075;-76
2023/02/02 02:28:49;;;;;;;2.42;1.38;;;;;;;8.68;100.00;101777.47;2095997;28;20090;-76
2023/02/02 02:30:36;;;;;;;2.25;1.30;;;;;;;8.62;100.00;101785.13;2100249;28;20549;-76
2023/02/02 02:32:26;;;;;;;8.25;6.20;;;;;;;8.60;100.00;101778.91;2097675;28;20113;-75
2023/02/02 02:33:58;;;;;;;7.40;4.90;;;;;;;8.61;100.00;101780.72;2097486;28;20048;-76
2023/02/02 02:35:31;;;;;;;6.93;6.07;;;;;;;8.65;100.00;101789.63;2091765;28;20067;-76
2023/02/02 02:37:00;;;;;;;11.30;8.75;;;;;;;8.69;100.00;101792.44;2095494;28;20040;-76
2023/02/02 02:38:29;;;;;;;13.70;12.13;;;;;;;8.75;100.00;101795.31;2102434;28;20143;-76
2023/02/02 02:39:56;;;;;;;8.38;7.03;;;;;;;8.78;100.00;101797.19;2089565;28;20048;-76
2023/02/02 02:41:22;;;;;;;9.52;6.30;;;;;;;8.80;100.00;101792.84;2095490;28;20079;-75
2023/02/02 02:42:48;;;;;;;7.57;5.60;;;;;;;8.80;100.00;101795.50;2094791;28;20076;-76
2023/02/02 02:44:14;;;;;;;6.57;5.03;;;;;;;8.82;100.00;101795.56;2087525;28;20059;-76
2023/02/02 02:45:37;;;;;;;6.18;4.80;;;;;;;8.82;100.00;101809.63;2098334;28;20048;-76
2023/02/02 02:47:00;;;;;;;5.70;4.07;;;;;;;8.83;100.00;101803.53;2103472;28;20093;-75
2023/02/02 02:48:24;;;;;;;6.22;4.30;;;;;;;8.86;100.00;101795.72;2094612;28;20593;-76
2023/02/02 02:49:48;;;;;;;5.43;3.70;;;;;;;8.88;100.00;101795.78;2094747;28;20443;-76
2023/02/02 02:51:42;;;;;;;5.72;3.33;;;;;;;8.89;100.00;101803.75;2103711;28;20036;-76
2023/02/02 02:53:09;;;;;;;4.18;2.78;;;;;;;8.89;100.00;101800.22;2095701;28;20118;-76
2023/02/02 02:54:34;;;;;;;4.55;2.80;;;;;;;8.89;100.00;101803.75;2093406;28;20105;-76
2023/02/02 02:56:11;;;;;;;3.58;2.88;;;;;;;8.93;100.00;101803.03;2094076;28;20048;-75
2023/02/02 02:57:54;;;;;;;5.28;2.10;;;;;;;8.94;100.00;101804.81;2095645;28;20052;-77
2023/02/02 02:59:24;;;;;;;4.68;1.67;;;;;;;8.96;100.00;101805.78;2096157;28;20049;-76
2023/02/02 03:00:56;;;;;;;5.53;1.80;;;;;;;8.94;100.00;101812.72;2101680;28;20055;-76
2023/02/02 03:02:32;;;;;;;2.83;1.58;;;;;;;8.93;100.00;101807.38;2110665;28;20576;-76
2023/02/02 03:04:10;;;;;;;3.38;1.60;;;;;;;8.89;100.00;101806.38;2103422;28;20538;-76
2023/02/02 03:05:44;;;;;;;2.65;1.70;;;;;;;8.84;100.00;101802.69;2096771;28;20041;-75
2023/02/02 03:07:14;;;;;;;3.70;1.33;;;;;;;8.75;100.00;101811.09;2093962;28;20550;-76
2023/02/02 03:08:40;;;;;;;2.85;1.65;;;;;;;8.65;100.00;101802.81;2101542;28;20035;-76
2023/02/02 03:10:04;;;;;;;3.33;1.63;;;;;;;8.56;100.00;101802.41;2096834;28;20105;-76
2023/02/02 03:11:27;;;;;;;3.00;1.45;;;;;;;8.50;100.00;101804.81;2102015;28;20071;-76
2023/02/02 03:12:51;;;;;;;2.15;1.30;;;;;;;8.44;100.00;101804.56;2095063;28;20417;-75
2023/02/02 03:14:13;;;;;;;2.55;1.52;;;;;;;8.39;100.00;101801.75;2100851;28;20523;-75
2023/02/02 03:15:35;;;;;;;2.85;2.08;;;;;;;8.35;100.00;101799.81;2100415;28;20488;-75
2023/02/02 03:16:57;;;;;;;6.70;4.30;;;;;;;8.33;100.00;101796.25;2105437;28;20457;-75
2023/02/02 03:18:22;;;;;;;6.25;3.35;;;;;;;8.34;100.00;101801.53;2102886;28;20052;-76
2023/02/02 03:19:46;;;;;;;6.60;3.22;;;;;;;8.37;100.00;101798.16;2104695;28;20036;-75
2023/02/02 03:21:08;;;;;;;5.55;3.55;;;;;;;8.38;100.00;101795.59;2099096;28;20423;-75
2023/02/02 03:22:29;;;;;;;4.93;3.63;;;;;;;8.40;100.00;101801.78;2101102;28;20408;-75
2023/02/02 03:23:51;;;;;;;6.05;3.95;;;;;;;8.41;100.00;101802.69;2100930;28;20550;-75
2023/02/02 03:25:14;;;;;;;6.60;3.80;;;;;;;8.44;100.00;101807.19;2095182;28;20075;-75
2023/02/02 03:26:37;;;;;;;7.03;3.85;;;;;;;8.47;100.00;101812.59;2095742;28;20501;-75
2023/02/02 03:28:00;;;;;;;5.20;3.30;;;;;;;8.50;100.00;101803.06;2089032;28;20048;-75
2023/02/02 03:29:23;;;;;;;6.57;4.20;;;;;;;8.52;100.00;101801.41;2099488;28;20056;-75
2023/02/02 03:30:46;;;;;;;6.60;4.32;;;;;;;8.52;100.00;101797.88;2111480;28;20043;-76
2023/02/02 03:32:08;;;;;;;8.85;6.10;;;;;;;8.47;100.00;101796.81;2097669;28;20139;-75
2023/02/02 03:33:33;;;;;;;11.23;8.63;;;;;;;8.42;100.00;101793.97;2099491;28;20043;-75
2023/02/02 03:34:56;;;;;;;8.50;6.85;;;;;;;8.36;100.00;101806.88;2097071;28;20041;-75
2023/02/02 03:36:18;;;;;;;8.40;5.82;;;;;;;8.29;100.00;101799.53;2103902;28;20044;-75
2023/02/02 03:37:39;;;;;;;7.65;5.22;;;;;;;8.24;100.00;101803.69;2101642;28;20040;-75
2023/02/02 03:39:02;;;;;;;8.63;4.93;;;;;;;8.21;100.00;101804.47;2097337;28;20060;-75
2023/02/02 03:40:23;;;;;;;7.13;4.28;;;;;;;8.20;100.00;101804.41;2096784;28;20056;-75
2023/02/02 03:41:45;;;;;;;7.70;3.83;;;;;;;8.20;100.00;101804.41;2104180;28;20048;-75
2023/02/02 03:43:07;;;;;;;11.48;9.25;;;;;;;8.20;100.00;101807.06;2102202;28;20055;-75
2023/02/02 03:44:29;;;;;;;10.77;9.30;;;;;;;8.20;100.00;101807.94;2106599;28;20050;-76
2023/02/02 03:45:56;;;;;;;10.40;7.53;;;;;;;8.26;100.00;101808.22;2103151;28;20040;-75
2023/02/02 03:47:18;;;;;;;8.27;7.07;;;;;;;8.30;100.00;101812.78;2103759;28;20411;-75
2023/02/02 03:48:41;;;;;;;11.13;8.55;;;;;;;8.34;100.00;101808.53;2102952;28;20067;-75
2023/02/02 03:50:05;;;;;;;11.30;8.30;;;;;;;8.40;100.00;101817.56;2101829;28;20085;-75
2023/02/02 03:51:26;;;;;;;11.50;9.05;;;;;;;8.43;100.00;101826.44;2094881;28;20067;-76
2023/02/02 03:52:48;;;;;;;13.65;9.10;;;;;;;8.44;100.00;101821.25;2100591;28;20098;-76
2023/02/02 03:54:10;;;;;;;11.50;8.10;;;;;;;8.48;100.00;101825.78;2093769;28;20102;-76
2023/02/02 03:55:33;;;;;;;9.98;6.80;;;;;;;8.50;100.00;101826.75;2093703;28;20051;-76
2023/02/02 03:56:55;;;;;;;9.63;7.50;;;;;;;8.52;100.00;101824.19;2103376;28;20048;-76
2023/02/02 03:58:20;;;;;;;10.73;5.97;;;;;;;8.53;100.00;101824.25;2102908;28;20044;-76
2023/02/02 03:59:43;;;;;;;8.05;4.72;;;;;;;8.56;100.00;101828.72;2093300;28;20056;-75
2023/02/02 04:01:07;;;;;;;4.40;2.30;;;;;;;8.55;100.00;101827.84;2106488;28;20044;-76
2023/02/02 04:02:28;;;;;;;4.30;2.67;;;;;;;8.56;100.00;101834.00;2096852;28;20048;-76
2023/02/02 04:03:50;;;;;;;2.80;2.10;;;;;;;8.57;100.00;101834.06;2092223;28;20373;-75
2023/02/02 04:05:14;;;;;;;7.32;2.92;;;;;;;8.54;100.00;101828.66;2097133;28;20051;-75
2023/02/02 04:06:35;;;;;;;4.35;2.90;;;;;;;8.53;100.00;101834.78;2094446;28;20045;-76
2023/02/02 04:07:58;;;;;;;6.72;3.22;;;;;;;8.51;100.00;101831.19;2094186;28;20052;-76
2023/02/02 04:09:19;;;;;;;4.72;3.30;;;;;;;8.48;100.00;101830.16;2101986;28;20047;-76
2023/02/02 04:10:42;;;;;;;3.65;2.33;;;;;;;8.45;100.00;101827.41;2096953;28;20681;-76
2023/02/02 04:12:04;;;;;;;3.25;2.30;;;;;;;8.42;100.00;101833.44;2100046;28;20063;-75
2023/02/02 04:13:26;;;;;;;3.75;2.25;;;;;;;8.38;100.00;101823.63;2105742;28;20139;-75
2023/02/02 04:14:48;;;;;;;2.05;1.65;;;;;;;8.36;100.00;101827.91;2102266;28;20588;-76
2023/02/02 04:16:12;;;;;;;5.63;1.65;;;;;;;8.35;100.00;101828.75;2104139;28;20719;-75
2023/02/02 04:17:34;;;;;;;4.25;1.85;;;;;;;8.32;100.00;101829.53;2096763;28;20109;-75
2023/02/02 04:18:56;;;;;;;;;;;;;;;8.23;100.00;101834.38;2089106;28;20143;-75
2023/02/02 04:20:20;;;;;;;6.75;2.50;;;;;;;8.22;100.00;101831.66;2092150;28;19924;-76
2023/02/02 04:21:41;;;;;;;4.05;2.22;;;;;;;8.22;100.00;101829.03;2101828;28;20093;-76
2023/02/02 04:23:03;;;;;;;4.40;2.50;;;;;;;8.22;100.00;101836.91;2102370;28;20393;-75
2023/02/02 04:24:25;;;;;;;4.18;2.25;;;;;;;8.23;100.00;101834.38;2101674;28;20052;-75
2023/02/02 04:25:48;;;;;;;2.97;2.58;;;;;;;8.25;100.00;101837.06;2103980;28;20032;-75
2023/02/02 04:27:10;;;;;;;5.40;3.30;;;;;;;8.25;100.00;101837.06;2102732;28;20056;-76
2023/02/02 04:28:32;;;;;;;4.65;2.72;;;;;;;8.27;100.00;101840.66;2101329;28;20056;-76
2023/02/02 04:29:54;;;;;;;5.82;3.38;;;;;;;8.28;100.00;101837.19;2101738;28;20134;-75
2023/02/02 04:31:16;;;;;;;5.95;3.50;;;;;;;8.31;100.00;101842.63;2101595;28;20044;-76
2023/02/02 04:32:38;;;;;;;6.38;3.47;;;;;;;8.29;100.00;101844.25;2111322;28;20051;-75
2023/02/02 04:34:00;;;;;;;4.30;2.70;;;;;;;8.27;100.00;101838.03;2102894;28;20031;-75
2023/02/02 04:35:23;;;;;;;5.53;3.90;;;;;;;8.26;100.00;101838.88;2101265;28;20492;-76
2023/02/02 04:36:45;;;;;;;16.02;7.93;;;;;;;8.23;100.00;101839.63;2094389;28;20052;-75
2023/02/02 04:38:06;;;;;;;17.15;10.98;;;;;;;8.21;100.00;101832.50;2102130;28;20071;-76
2023/02/02 04:39:29;;;;;;;15.70;11.05;;;;;;;8.18;100.00;101837.63;2101162;28;20036;-76
2023/02/02 04:40:52;;;;;;;12.20;8.35;;;;;;;8.15;100.00;101835.75;2102915;28;20043;-76
2023/02/02 04:42:13;;;;;;;8.55;5.22;;;;;;;8.12;100.00;101840.91;2101224;28;20085;-76
2023/02/02 04:43:35;;;;;;;12.90;8.25;;;;;;;8.05;100.00;101843.22;2101126;28;20056;-75
2023/02/02 04:44:58;;;;;;;8.18;5.35;;;;;;;7.95;100.00;101836.63;2102189;28;20040;-75
2023/02/02 04:46:20;;;;;;;7.35;4.35;;;;;;;7.90;100.00;101846.06;2096664;28;20521;-75
2023/02/02 04:47:41;;;;;;;7.20;3.83;;;;;;;7.83;100.00;101849.25;2101052;28;20455;-76
2023/02/02 04:49:04;;;;;;;6.78;3.78;;;;;;;7.77;100.00;101854.25;2105407;28;20036;-75
2023/02/02 04:50:26;;;;;;;7.50;4.18;;;;;;;7.72;100.00;101853.16;2101148;28;20051;-76
2023/02/02 04:51:50;;;;;;;7.03;4.10;;;;;;;7.65;100.00;101848.44;2107367;28;20054;-75
2023/02/02 04:53:12;;;;;;;6.75;4.22;;;;;;;7.56;100.00;101851.53;2105513;28;20095;-75
2023/02/02 04:54:33;;;;;;;7.05;4.68;;;;;;;7.49;100.00;101855.63;2106590;28;20048;-76
2023/02/02 04:55:56;;;;;;;7.25;4.80;;;;;;;7.45;100.00;101853.69;2103859;28;20055;-75
2023/02/02 04:57:17;;;;;;;7.80;5.65;;;;;;;7.42;100.00;101855.28;2101544;28;20048;-76
2023/02/02 04:58:39;;;;;;;10.63;6.35;;;;;;;7.35;100.00;101855.84;2092247;28;20100;-75
2023/02/02 05:00:02;;;;;;;7.53;5.20;;;;;;;7.31;100.00;101854.78;2083374;28;20045;-76
2023/02/02 05:01:28;;;;;;;6.47;4.60;;;;;;;7.27;100.00;101852.88;2101388;28;20040;-76
2023/02/02 05:02:49;;;;;;;6.20;4.53;;;;;;;7.20;100.00;101859.56;2085406;28;20524;-76
2023/02/02 05:04:12;;;;;;;7.80;5.60;;;;;;;7.13;100.00;101857.47;2094101;28;20056;-74
2023/02/02 05:05:36;;;;;;;8.18;5.90;;;;;;;7.09;100.00;101863.38;2096656;28;20543;-76
2023/02/02 05:06:58;;;;;;;9.90;7.63;;;;;;;7.05;100.00;101863.19;2107498;28;20031;-75
2023/02/02 05:08:19;;;;;;;9.35;6.93;;;;;;;7.02;100.00;101866.53;2105104;28;20403;-76
2023/02/02 05:09:41;;;;;;;11.57;8.25;;;;;;;6.98;100.00;101869.88;2108438;28;20098;-76
2023/02/02 05:11:06;;;;;;;12.05;8.18;;;;;;;6.94;100.00;101865.31;2096240;28;20373;-75
2023/02/02 05:12:29;;;;;;;18.30;11.88;;;;;;;6.93;100.00;101871.38;2094154;28;20041;-75
2023/02/02 05:13:52;;;;;;;14.38;10.15;;;;;;;6.93;100.00;101867.84;2100874;28;20126;-75
2023/02/02 05:15:14;;;;;;;13.10;9.77;;;;;;;6.94;100.00;101869.66;2102047;28;20128;-76
2023/02/02 05:16:38;;;;;;;13.13;8.95;;;;;;;6.92;100.00;101872.19;2094495;28;20105;-76
2023/02/02 05:17:59;;;;;;;12.75;9.57;;;;;;;6.90;100.00;101873.84;2088462;28;20044;-74
2023/02/02 05:19:21;;;;;;;19.33;13.20;;;;;;;6.90;100.00;101883.44;2090035;28;20542;-75
2023/02/02 05:20:45;;;;;;;17.60;12.25;;;;;;;6.89;100.00;101873.78;2090284;28;20040;-75
2023/02/02 05:22:07;;;;;;;15.88;10.98;;;;;;;6.90;100.00;101876.47;2097026;28;20059;-76
2023/02/02 05:23:30;;;;;;;14.77;11.35;;;;;;;6.92;100.00;101880.06;2103580;28;20052;-76
2023/02/02 05:24:52;;;;;;;12.90;10.15;;;;;;;6.94;100.00;101873.19;2099517;28;20120;-75
2023/02/02 05:26:16;;;;;;;13.13;8.90;;;;;;;6.97;100.00;101867.16;2099875;28;20056;-75
2023/02/02 05:27:38;;;;;;;14.77;9.15;;;;;;;7.00;100.00;101883.06;2094260;28;20064;-76
2023/02/02 05:28:59;;;;;;;20.48;13.70;;;;;;;7.00;100.00;101872.56;2094076;28;20040;-75
2023/02/02 05:30:22;;;;;;;22.45;12.07;;;;;;;7.00;100.00;101886.59;2096188;28;20078;-75
2023/02/02 05:31:43;;;;;;;20.20;13.38;;;;;;;6.98;100.00;101875.09;2102361;28;20059;-76
2023/02/02 05:33:05;;;;;;;13.55;9.20;;;;;;;6.95;100.00;101872.34;2102114;28;20109;-75
2023/02/02 05:34:28;;;;;;;11.95;8.02;;;;;;;6.93;100.00;101873.09;2100979;28;20028;-75
2023/02/02 05:35:53;;;;;;;11.50;6.90;;;;;;;6.90;100.00;101881.72;2104009;28;20052;-74
2023/02/02 05:37:15;;;;;;;9.50;6.30;;;;;;;6.86;100.00;101879.78;2097033;28;20064;-75
2023/02/02 05:38:38;;;;;;;9.90;6.30;;;;;;;6.84;100.00;101876.16;2101212;28;20052;-75
2023/02/02 05:40:00;;;;;;;9.77;6.03;;;;;;;6.82;100.00;101890.06;2099903;28;20492;-75
2023/02/02 05:41:22;;;;;;;9.20;5.93;;;;;;;6.79;100.00;101881.19;2096279;28;20067;-75
2023/02/02 05:42:48;;;;;;;10.38;6.15;;;;;;;6.79;100.00;101883.81;2100161;28;20059;-76
2023/02/02 05:44:12;;;;;;;8.75;5.35;;;;;;;6.79;100.00;101882.91;2101497;28;20059;-75
2023/02/02 05:45:33;;;;;;;8.40;5.65;;;;;;;6.80;100.00;101890.88;2102621;28;20052;-75
2023/02/02 05:46:56;;;;;;;7.82;4.95;;;;;;;6.80;100.00;101895.22;2093405;28;20059;-75
2023/02/02 05:48:17;;;;;;;8.68;5.50;;;;;;;6.82;100.00;101890.06;2097168;28;20036;-76
2023/02/02 05:49:39;;;;;;;7.82;5.80;;;;;;;6.83;100.00;101895.34;2096061;28;20154;-75
2023/02/02 05:51:06;;;;;;;9.65;5.13;;;;;;;6.84;100.00;101891.91;2093549;28;20118;-76
2023/02/02 05:52:34;;;;;;;8.52;5.20;;;;;;;6.83;100.00;101895.34;2094389;28;20131;-75
2023/02/02 05:53:56;;;;;;;8.40;5.88;;;;;;;6.82;100.00;101893.59;2086164;28;20044;-75
2023/02/02 05:55:18;;;;;;;7.88;4.97;;;;;;;6.83;100.00;101894.50;2097966;28;20055;-76
2023/02/02 05:56:41;;;;;;;9.43;5.70;;;;;;;6.83;100.00;101894.50;2108245;28;20038;-75
2023/02/02 05:58:03;;;;;;;8.98;5.40;;;;;;;6.83;100.00;101897.97;2102279;28;20052;-75
2023/02/02 05:59:26;;;;;;;8.50;6.20;;;;;;;6.84;100.00;101902.41;2105325;28;20056;-75
2023/02/02 06:00:48;;;;;;;9.35;6.22;;;;;;;6.84;100.00;101896.25;2106609;28;20044;-76
2023/02/02 06:02:10;;;;;;;9.43;7.10;;;;;;;6.88;100.00;101900.84;2100420;28;20048;-75
2023/02/02 06:03:31;;;;;;;12.57;9.32;;;;;;;6.99;100.00;101902.25;2107447;28;20059;-75
2023/02/02 06:04:54;;;;;;;11.57;8.90;;;;;;;7.12;100.00;101895.06;2110206;28;20104;-75
2023/02/02 06:06:17;;;;;;;11.05;8.48;;;;;;;7.28;100.00;101899.31;2102028;28;20051;-75
2023/02/02 06:07:39;;;;;;;14.00;9.43;;;;;;;7.42;100.00;101897.31;2093919;28;20570;-76
2023/02/02 06:09:01;;;;;;;12.38;9.77;;;;;;;7.54;100.00;101895.28;2102308;28;20043;-75
2023/02/02 06:10:23;;;;;;;11.50;9.13;;;;;;;7.70;100.00;101903.00;2096628;28;20067;-75
2023/02/02 06:11:46;;;;;;;13.93;9.55;;;;;;;7.83;100.00;101909.72;2099253;28;20490;-76
2023/02/02 06:13:09;;;;;;;11.52;8.60;;;;;;;7.95;100.00;101900.63;2110244;28;20039;-76
2023/02/02 06:14:31;;;;;;;9.32;7.05;;;;;;;8.08;100.00;101902.06;2108319;28;20054;-76
2023/02/02 06:15:53;;;;;;;8.50;5.68;;;;;;;8.20;100.00;101909.63;2110234;28;20404;-76
2023/02/02 06:17:16;;;;;;;8.32;5.43;;;;;;;8.32;100.00;101903.19;2108842;28;20435;-76
2023/02/02 06:18:38;;;;;;;8.55;4.60;;;;;;;8.42;100.00;101906.19;2110462;28;20048;-76
2023/02/02 06:20:01;;;;;;;8.98;4.85;;;;;;;8.51;100.00;101904.88;2109583;28;20047;-76
2023/02/02 06:21:23;;;;;;;7.38;4.00;;;;;;;8.64;100.00;101906.28;2101434;28;20039;-77
2023/02/02 06:22:47;;;;;;;5.45;3.65;;;;;;;8.74;100.00;101908.44;2101114;28;20149;-76
2023/02/02 06:24:09;;;;;;;4.55;2.38;;;;;;;8.85;100.00;101909.81;2099664;28;20148;-76
2023/02/02 06:25:31;;;;;;;3.15;2.05;;;;;;;8.92;100.00;101910.94;2110302;28;20430;-76
2023/02/02 06:26:53;;;;;;;3.75;2.17;;;;;;;8.98;100.00;101906.84;2109511;28;20523;-76
2023/02/02 06:28:15;;;;;;;2.45;1.63;;;;;;;9.08;100.00;101910.72;2110386;28;20051;-76
2023/02/02 06:29:36;;;;;;;3.15;1.92;;;;;;;9.17;100.00;101908.47;2106038;28;20059;-76
2023/02/02 06:31:04;;;;;;;3.97;1.70;;;;;;;9.29;100.00;101906.31;2110153;28;20071;-76
2023/02/02 06:32:29;;;;;;;3.72;1.63;;;;;;;9.40;100.00;101907.59;2104738;28;20070;-76
2023/02/02 06:33:55;;;;;;;2.92;1.75;;;;;;;9.49;100.00;101909.72;2113320;28;20365;-76
2023/02/02 06:35:18;;;;;;;4.70;2.15;;;;;;;9.58;100.00;101913.56;2104559;28;20440;-76
2023/02/02 06:36:42;;;;;;;4.28;1.92;;;;;;;9.71;100.00;101908.78;2095903;28;20052;-76
2023/02/02 06:38:03;;;;;;;3.75;2.05;;;;;;;9.80;100.00;101912.66;2102399;28;20058;-76
2023/02/02 06:39:25;;;;;;;2.33;1.60;;;;;;;9.89;100.00;101917.38;2108625;28;20044;-77
2023/02/02 06:40:48;;;;;;;3.58;2.17;;;;;;;10.00;100.00;101916.03;2108236;28;20436;-76